Northern Maine Regional Airport at Presque Isle Presque Isle US
ICAO: KPQI
IATA: PQI
Category: Medium
Scheduled Services: Yes

Elevation: 534 ft
TransAlt. 18000 ft.

Airport Communications:
AWOS 3:118.025
BOSTON CLNC DEL:121.6
BOSTON CNTR:124.75
CTAF/UNICOM:122.8

KPQI Zoom In..

Runways:

(A) RW 01 length 7439 ft width 150 ft
ILS 108.70 / hdg 6

(B) RW 10 length 5994 ft width 100 ft
---- / hdg 96

(C) RW 19 length 7439 ft width 150 ft
---- / hdg 186

(D) RW 28 length 5994 ft width 100 ft
---- / hdg 276

Location; KPQI
Day. 06 / Time. 05.56 Zulu
* Altimeter: 29.93
* Temperature: 18° c. 64.4°f.
* Wind from: 230° Speed 04 kn.
Dewpoint: 12° c.
Visibility: 10 Statute Miles.
Clouds: Few 8000 ft.

KPQI 060556Z AUTO 23004KT 10SM FEW080 18/12 A2993 RMK AO2 SLP158 T01780117 10233 20178 51006

Going to: --> -->


Wind From 230°
Speed 04 kn.

 
 
jpsmedia worldairports.se 2020   terms of use